Terminal Aerodrome Forecast
Issued by NWS Twin Cities, MN

Home | Current Version | Previous Version | Text Only | Print | Product List | Glossary Off
Versions: 1 2 3 4 5 6 7 8 9 10 11 12 13 14 15 16 17 18 19 20 21 22 23 24 25 26 27 28 29

771
FTUS43 KMPX 181734
TAFMSP
TAF
KMSP 181734Z 1818/1924 20008KT P6SM FEW250
     FM190800 16004KT 5SM BR SCT008
     FM191000 16004KT 4SM BR OVC007
     FM191500 15006KT 4SM BR BKN008 OVC012=

USA.gov is the U.S. government's official web portal to all federal, state and local government web resources and services.